createdAt,value
2023-10-21T00:00:18.217Z,9.53
2023-10-21T00:03:06.965Z,9.54
2023-10-21T00:05:35.323Z,9.59
2023-10-21T00:08:06.022Z,9.59
2023-10-21T00:10:34.312Z,9.57
2023-10-21T00:13:03.933Z,9.61
2023-10-21T00:15:32.804Z,9.66
2023-10-21T00:18:01.391Z,9.69
2023-10-21T00:20:29.842Z,9.69
2023-10-21T00:22:58.412Z,9.63
2023-10-21T00:25:26.625Z,9.69
2023-10-21T00:27:54.988Z,9.72
2023-10-21T00:30:24.096Z,9.78
2023-10-21T00:33:00.588Z,9.75
2023-10-21T00:35:29.019Z,9.71
2023-10-21T00:37:57.347Z,9.73
2023-10-21T00:40:26.128Z,9.70
2023-10-21T00:42:55.799Z,9.72
2023-10-21T00:45:27.132Z,9.72
2023-10-21T00:47:55.754Z,9.71
2023-10-21T00:50:24.357Z,9.66
2023-10-21T00:52:52.699Z,9.69
2023-10-21T00:55:21.318Z,9.76
2023-10-21T00:57:51.162Z,9.77
2023-10-21T01:00:21.078Z,9.84
2023-10-21T01:02:50.178Z,9.85
2023-10-21T01:05:22.180Z,9.83
2023-10-21T01:07:50.642Z,9.88
2023-10-21T01:10:18.997Z,9.94
2023-10-21T01:12:47.373Z,10.03
2023-10-21T01:15:15.734Z,10.08
2023-10-21T01:17:51.405Z,10.08
2023-10-21T01:20:20.178Z,10.08
2023-10-21T01:22:48.649Z,10.15
2023-10-21T01:25:17.310Z,10.15
2023-10-21T01:27:45.935Z,10.15
2023-10-21T01:30:14.625Z,10.13
2023-10-21T01:32:43.109Z,10.15
2023-10-21T01:35:11.777Z,10.22
2023-10-21T01:37:40.242Z,10.26
2023-10-21T01:40:11.545Z,10.30
2023-10-21T01:42:59.915Z,10.26
2023-10-21T01:45:28.686Z,10.23
2023-10-21T01:48:00.332Z,10.29
2023-10-21T01:50:30.444Z,10.30
2023-10-21T01:53:01.211Z,10.31
2023-10-21T01:55:30.236Z,10.32
2023-10-21T01:57:58.782Z,10.25
2023-10-21T02:00:27.917Z,10.14
2023-10-21T02:02:59.554Z,10.21
2023-10-21T02:05:28.780Z,10.19
2023-10-21T02:07:57.320Z,10.20
2023-10-21T02:10:25.807Z,10.17
2023-10-21T02:12:54.557Z,10.20
2023-10-21T02:15:23.198Z,10.19
2023-10-21T02:17:51.808Z,10.15
2023-10-21T02:20:20.213Z,10.16
2023-10-21T02:22:49.068Z,10.20
2023-10-21T02:25:19.198Z,10.21
2023-10-21T02:27:53.290Z,10.22
2023-10-21T02:30:21.642Z,10.21
2023-10-21T02:32:50.415Z,10.14
2023-10-21T02:35:18.881Z,10.15
2023-10-21T02:37:47.397Z,10.21
2023-10-21T02:40:18.679Z,10.23
2023-10-21T02:42:47.461Z,10.28
2023-10-21T02:45:15.962Z,10.29
2023-10-21T02:47:44.506Z,10.35
2023-10-21T02:50:13.349Z,10.36
2023-10-21T02:52:41.524Z,10.28
2023-10-21T02:55:10.114Z,10.30
2023-10-21T02:57:38.537Z,10.27
2023-10-21T03:00:17.075Z,10.23
2023-10-21T03:02:46.441Z,10.22
2023-10-21T03:05:15.082Z,10.27
2023-10-21T03:07:44.773Z,10.30
2023-10-21T03:10:13.602Z,10.30
2023-10-21T03:12:44.673Z,10.38
2023-10-21T03:15:13.772Z,10.41
2023-10-21T03:17:42.144Z,10.39
2023-10-21T03:20:10.913Z,10.43
2023-10-21T03:22:41.097Z,10.45
2023-10-21T03:25:09.505Z,10.44
2023-10-21T03:27:37.784Z,10.48
2023-10-21T03:30:09.070Z,10.51
2023-10-21T03:32:37.568Z,10.49
2023-10-21T03:35:06.023Z,10.49
2023-10-21T03:37:38.038Z,10.53
2023-10-21T03:40:11.946Z,10.59
2023-10-21T03:42:40.321Z,10.68
2023-10-21T03:45:09.413Z,10.74
2023-10-21T03:47:37.854Z,10.73
2023-10-21T03:50:06.780Z,10.73
2023-10-21T03:52:34.894Z,10.70
2023-10-21T03:55:03.233Z,10.71
2023-10-21T03:57:32.061Z,10.73
2023-10-21T04:00:08.265Z,10.74
2023-10-21T04:02:36.778Z,10.69
2023-10-21T04:05:09.689Z,10.72
2023-10-21T04:07:38.399Z,10.76
2023-10-21T04:10:07.523Z,10.76
2023-10-21T04:12:35.764Z,10.80
2023-10-21T04:15:05.276Z,10.86
2023-10-21T04:17:33.594Z,10.84
2023-10-21T04:20:01.934Z,10.86
2023-10-21T04:22:31.580Z,10.92
2023-10-21T04:25:03.022Z,10.92
2023-10-21T04:27:31.177Z,10.91
2023-10-21T04:29:59.401Z,10.98
2023-10-21T04:32:29.051Z,10.99
2023-10-21T04:34:58.640Z,11.01
2023-10-21T04:37:26.719Z,11.06
2023-10-21T04:39:54.843Z,11.05
2023-10-21T04:42:25.086Z,10.98
2023-10-21T04:44:56.348Z,11.01
2023-10-21T04:47:24.829Z,11.04
2023-10-21T04:49:52.971Z,11.07
2023-10-21T04:52:21.094Z,11.09
2023-10-21T04:54:49.380Z,11.13
2023-10-21T04:57:20.920Z,11.10
2023-10-21T04:59:49.215Z,11.11
2023-10-21T05:02:17.534Z,11.15
2023-10-21T05:04:52.222Z,11.21
2023-10-21T05:07:21.054Z,11.22
2023-10-21T05:09:49.193Z,11.26
2023-10-21T05:12:17.249Z,11.25
2023-10-21T05:14:45.456Z,11.20
2023-10-21T05:17:13.436Z,11.15
2023-10-21T05:19:41.518Z,11.05
2023-10-21T05:22:09.589Z,11.03
2023-10-21T05:24:38.338Z,10.96
2023-10-21T05:27:07.183Z,10.91
2023-10-21T05:29:35.421Z,10.87
2023-10-21T05:32:04.061Z,10.86
2023-10-21T05:34:32.852Z,10.85
2023-10-21T05:37:01.465Z,10.81
2023-10-21T05:39:30.028Z,10.79
2023-10-21T05:41:58.382Z,10.82
2023-10-21T05:44:37.524Z,10.90
2023-10-21T05:47:15.579Z,10.89
2023-10-21T05:49:43.877Z,10.97
2023-10-21T05:52:12.431Z,11.00
2023-10-21T05:54:40.834Z,11.05
2023-10-21T05:57:09.324Z,11.10
2023-10-21T05:59:37.808Z,11.13
2023-10-21T06:02:07.326Z,11.18
2023-10-21T06:04:35.829Z,11.26
2023-10-21T06:07:04.463Z,11.31
2023-10-21T06:09:33.463Z,11.37
2023-10-21T06:12:02.049Z,11.41
2023-10-21T06:14:30.368Z,11.41
2023-10-21T06:16:59.466Z,11.45
2023-10-21T06:19:29.084Z,11.43
2023-10-21T06:21:57.679Z,11.42
2023-10-21T06:24:26.636Z,11.48
2023-10-21T06:26:54.830Z,11.46
2023-10-21T06:29:24.990Z,11.48
2023-10-21T06:31:53.681Z,11.43
2023-10-21T06:34:21.756Z,11.47
2023-10-21T06:36:50.237Z,11.49
2023-10-21T06:39:20.192Z,11.54
2023-10-21T06:41:48.707Z,11.58
2023-10-21T06:44:17.657Z,11.63
2023-10-21T06:46:46.150Z,11.67
2023-10-21T06:49:14.376Z,11.73
2023-10-21T06:51:42.566Z,11.73
2023-10-21T06:54:11.073Z,11.75
2023-10-21T06:56:39.278Z,11.75
2023-10-21T06:59:07.655Z,11.74
2023-10-21T07:01:36.195Z,11.77
2023-10-21T07:04:07.839Z,11.82
2023-10-21T07:06:35.884Z,11.86
2023-10-21T07:09:04.421Z,11.91
2023-10-21T07:11:32.462Z,11.92
2023-10-21T07:14:00.837Z,11.97
2023-10-21T07:16:29.115Z,12.01
2023-10-21T07:18:58.490Z,12.06
2023-10-21T07:21:27.241Z,12.09
2023-10-21T07:23:55.414Z,12.12
2023-10-21T07:26:23.934Z,12.14
2023-10-21T07:28:52.091Z,12.19
2023-10-21T07:31:20.838Z,12.24
2023-10-21T07:33:52.260Z,12.29
2023-10-21T07:36:20.605Z,12.31
2023-10-21T07:38:49.042Z,12.36
2023-10-21T07:41:17.810Z,12.36
2023-10-21T07:43:46.510Z,12.39
2023-10-21T07:46:14.760Z,12.44
2023-10-21T07:48:43.106Z,12.41
2023-10-21T07:51:11.445Z,12.38
2023-10-21T07:53:39.523Z,12.43
2023-10-21T07:56:07.861Z,12.43
2023-10-21T07:58:37.100Z,12.44
2023-10-21T08:01:05.427Z,12.46
2023-10-21T08:06:04.191Z,12.43
2023-10-21T08:08:33.480Z,12.48
2023-10-21T08:11:05.895Z,12.52
2023-10-21T08:13:34.562Z,12.56
2023-10-21T08:16:03.151Z,12.61
2023-10-21T08:18:31.733Z,12.58
2023-10-21T08:21:00.675Z,12.61
2023-10-21T08:23:29.855Z,12.63
2023-10-21T08:25:59.982Z,12.70
2023-10-21T08:28:28.337Z,12.74
2023-10-21T08:30:56.973Z,12.75
2023-10-21T08:33:26.325Z,12.75
2023-10-21T08:35:54.655Z,12.81
2023-10-21T08:38:22.854Z,12.87
2023-10-21T08:40:51.106Z,12.93
2023-10-21T08:43:19.457Z,12.98
2023-10-21T08:45:48.523Z,12.98
2023-10-21T08:48:18.278Z,13.01
2023-10-21T08:50:51.142Z,13.10
2023-10-21T08:53:20.616Z,13.15
2023-10-21T08:55:49.311Z,13.21
2023-10-21T08:58:17.606Z,13.21
2023-10-21T09:00:46.404Z,13.25
2023-10-21T09:03:16.438Z,13.28
2023-10-21T09:06:13.621Z,13.30
2023-10-21T09:08:43.280Z,13.26
2023-10-21T09:11:13.485Z,13.35
2023-10-21T09:13:43.162Z,13.42
2023-10-21T09:16:20.865Z,13.42
2023-10-21T09:19:01.573Z,13.41
2023-10-21T09:21:38.740Z,13.43
2023-10-21T09:24:24.870Z,13.45
2023-10-21T09:26:53.154Z,13.48
2023-10-21T09:29:22.034Z,13.58
2023-10-21T09:31:56.557Z,13.64
2023-10-21T09:34:28.768Z,13.68
2023-10-21T09:37:00.317Z,13.74
2023-10-21T09:39:38.770Z,13.77
2023-10-21T09:42:08.103Z,13.69
2023-10-21T09:44:36.788Z,13.69
2023-10-21T09:47:07.545Z,13.74
2023-10-21T09:49:42.452Z,13.77
2023-10-21T09:52:17.186Z,13.76
2023-10-21T09:54:53.658Z,13.76
2023-10-21T09:57:23.157Z,13.79
2023-10-21T09:59:53.595Z,13.90
2023-10-21T10:02:22.157Z,13.99
2023-10-21T10:04:52.520Z,14.07
2023-10-21T10:07:37.786Z,14.13
2023-10-21T10:10:12.795Z,14.06
2023-10-21T10:13:11.669Z,14.11
2023-10-21T10:15:42.482Z,14.09
2023-10-21T10:18:20.141Z,14.15
2023-10-21T10:20:53.622Z,14.17
2023-10-21T10:23:26.518Z,14.24
2023-10-21T10:25:58.852Z,14.23
2023-10-21T10:28:28.212Z,14.24
2023-10-21T10:30:58.774Z,14.26
2023-10-21T10:33:30.258Z,14.25
2023-10-21T10:36:02.004Z,14.22
2023-10-21T10:38:33.954Z,14.21
2023-10-21T10:41:16.254Z,14.22
2023-10-21T10:43:53.411Z,14.22
2023-10-21T10:46:24.152Z,14.29
2023-10-21T10:48:53.986Z,14.37
2023-10-21T10:51:40.701Z,14.38
2023-10-21T10:54:13.805Z,14.35
2023-10-21T10:56:45.733Z,14.42
2023-10-21T10:59:16.045Z,14.45
2023-10-21T11:01:45.379Z,14.48
2023-10-21T11:04:16.196Z,14.53
2023-10-21T11:06:46.654Z,14.53
2023-10-21T11:09:32.079Z,14.56
2023-10-21T11:12:09.372Z,14.45
2023-10-21T11:14:40.034Z,14.47
2023-10-21T11:17:08.856Z,14.54
2023-10-21T11:19:37.257Z,14.54
2023-10-21T11:22:09.838Z,14.37
2023-10-21T11:24:40.080Z,14.42
2023-10-21T11:27:08.587Z,14.48
2023-10-21T11:29:39.076Z,14.55
2023-10-21T11:32:13.260Z,14.60
2023-10-21T11:34:46.066Z,14.64
2023-10-21T11:37:14.448Z,14.66
2023-10-21T11:39:42.821Z,14.68
2023-10-21T11:42:21.234Z,14.72
2023-10-21T11:45:01.980Z,14.72
2023-10-21T11:47:31.974Z,14.71
2023-10-21T11:50:00.429Z,14.69
2023-10-21T11:52:29.148Z,14.69
2023-10-21T11:55:11.916Z,14.74
2023-10-21T11:57:59.776Z,14.73
2023-10-21T12:00:40.031Z,14.74
2023-10-21T12:03:37.676Z,14.77
2023-10-21T12:06:09.389Z,14.68
2023-10-21T12:09:11.119Z,14.68
2023-10-21T12:11:58.363Z,14.59
2023-10-21T12:14:45.432Z,14.55
2023-10-21T12:17:26.034Z,14.49
2023-10-21T12:20:06.963Z,14.48
2023-10-21T12:22:53.735Z,14.48
2023-10-21T12:25:31.106Z,14.46
2023-10-21T12:28:18.520Z,14.49
2023-10-21T12:30:48.184Z,14.47
2023-10-21T12:33:35.268Z,14.51
2023-10-21T12:36:12.756Z,14.45
2023-10-21T12:38:41.212Z,14.43
2023-10-21T12:41:39.110Z,14.48
2023-10-21T12:44:15.426Z,14.46
2023-10-21T12:46:44.772Z,14.56
2023-10-21T12:49:25.928Z,14.63
2023-10-21T12:51:56.433Z,14.65
2023-10-21T12:54:24.602Z,14.69
2023-10-21T12:56:52.925Z,14.74
2023-10-21T12:59:22.169Z,14.78
2023-10-21T13:01:50.713Z,14.81
2023-10-21T13:04:20.479Z,14.85
2023-10-21T13:06:49.161Z,14.86
2023-10-21T13:09:26.829Z,14.91
2023-10-21T13:11:55.488Z,14.96
2023-10-21T13:14:25.377Z,15.05
2023-10-21T13:16:54.180Z,15.05
2023-10-21T13:19:27.510Z,14.84
2023-10-21T13:21:56.985Z,14.76
2023-10-21T13:24:25.729Z,14.82
2023-10-21T13:26:54.115Z,14.84
2023-10-21T13:29:22.401Z,14.89
2023-10-21T13:31:51.262Z,14.91
2023-10-21T13:34:19.399Z,14.94
2023-10-21T13:36:47.744Z,14.96
2023-10-21T13:39:20.125Z,15.00
2023-10-21T13:41:49.687Z,14.92
2023-10-21T13:44:18.470Z,14.99
2023-10-21T13:46:47.021Z,14.98
2023-10-21T13:49:17.916Z,14.90
2023-10-21T13:51:47.810Z,14.93
2023-10-21T13:54:16.658Z,14.95
2023-10-21T13:56:45.007Z,15.00
2023-10-21T13:59:17.327Z,14.83
2023-10-21T14:01:46.294Z,14.90
2023-10-21T14:04:15.950Z,14.95
2023-10-21T14:06:44.692Z,14.93
2023-10-21T14:09:24.588Z,14.93
2023-10-21T14:11:53.759Z,14.90
2023-10-21T14:14:22.615Z,15.00
2023-10-21T14:16:51.119Z,15.09
2023-10-21T14:19:19.801Z,15.14
2023-10-21T14:21:48.258Z,15.22
2023-10-21T14:24:16.657Z,15.18
2023-10-21T14:26:46.393Z,15.20
2023-10-21T14:29:15.749Z,15.21
2023-10-21T14:31:46.412Z,15.29
2023-10-21T14:34:17.609Z,15.37
2023-10-21T14:36:46.995Z,15.25
2023-10-21T14:39:16.879Z,15.30
2023-10-21T14:41:45.284Z,15.36
2023-10-21T14:44:13.583Z,15.38
2023-10-21T14:46:41.749Z,15.42
2023-10-21T14:49:10.162Z,15.43
2023-10-21T14:51:38.541Z,15.40
2023-10-21T14:54:07.953Z,15.47
2023-10-21T14:56:36.735Z,15.53
2023-10-21T14:59:06.835Z,15.57
2023-10-21T15:01:36.305Z,15.56
2023-10-21T15:04:08.586Z,15.61
2023-10-21T15:06:37.473Z,15.62
2023-10-21T15:09:06.019Z,15.63
2023-10-21T15:11:34.521Z,15.59
2023-10-21T15:14:03.035Z,15.64
2023-10-21T15:16:31.401Z,15.66
2023-10-21T15:19:00.014Z,15.67
2023-10-21T15:21:29.190Z,15.67
2023-10-21T15:23:57.722Z,15.70
2023-10-21T15:26:26.263Z,15.70
2023-10-21T15:28:57.927Z,15.72
2023-10-21T15:31:26.782Z,15.72
2023-10-21T15:33:58.942Z,15.73
2023-10-21T15:36:41.178Z,15.74
2023-10-21T15:39:22.472Z,15.74
2023-10-21T15:41:51.611Z,15.75
2023-10-21T15:44:20.444Z,15.80
2023-10-21T15:46:48.563Z,15.76
2023-10-21T15:49:17.069Z,15.71
2023-10-21T15:51:45.485Z,15.68
2023-10-21T15:54:13.918Z,15.68
2023-10-21T15:56:42.249Z,15.66
2023-10-21T15:59:10.511Z,15.64
2023-10-21T16:01:39.682Z,15.60
2023-10-21T16:36:59.770Z,15.00
2023-10-21T16:39:31.131Z,14.98
2023-10-21T16:41:59.373Z,15.09
2023-10-21T16:44:27.803Z,15.18
2023-10-21T16:46:55.783Z,15.24
2023-10-21T16:49:24.098Z,15.29
2023-10-21T16:51:52.374Z,15.33
2023-10-21T16:54:22.216Z,15.36
2023-10-21T16:56:50.613Z,15.37
2023-10-21T16:59:22.007Z,15.41
2023-10-21T17:01:50.296Z,15.43
2023-10-21T17:04:20.679Z,15.42
2023-10-21T17:06:49.494Z,15.41
2023-10-21T17:09:18.415Z,15.43
2023-10-21T17:11:48.460Z,15.45
2023-10-21T17:14:16.668Z,15.45
2023-10-21T17:16:44.980Z,15.49
2023-10-21T17:19:13.137Z,15.46
2023-10-21T17:21:41.356Z,15.46
2023-10-21T17:24:09.719Z,15.47
2023-10-21T17:26:37.984Z,15.46
2023-10-21T17:29:06.535Z,15.42
2023-10-21T17:31:35.582Z,15.41
2023-10-21T17:34:04.553Z,15.40
2023-10-21T17:36:32.889Z,15.36
2023-10-21T17:39:01.519Z,15.36
2023-10-21T17:41:32.268Z,15.38
2023-10-21T17:44:00.838Z,15.39
2023-10-21T17:46:29.756Z,15.41
2023-10-21T17:48:59.355Z,15.38
2023-10-21T17:51:30.484Z,15.32
2023-10-21T17:54:01.655Z,15.31
2023-10-21T17:56:30.114Z,15.31
2023-10-21T17:58:58.521Z,15.32
2023-10-21T18:01:26.931Z,15.32
2023-10-21T18:03:55.961Z,15.33
2023-10-21T18:06:24.526Z,15.34
2023-10-21T18:08:55.149Z,15.35
2023-10-21T18:11:27.105Z,15.36
2023-10-21T18:13:55.586Z,15.38
2023-10-21T18:16:24.025Z,15.41
2023-10-21T18:18:53.462Z,15.42
2023-10-21T18:21:22.200Z,15.43
2023-10-21T18:23:50.247Z,15.44
2023-10-21T18:26:18.255Z,15.44
2023-10-21T18:28:46.645Z,15.41
2023-10-21T18:31:15.191Z,15.38
2023-10-21T18:33:43.708Z,15.36
2023-10-21T18:36:12.500Z,15.33
2023-10-21T18:38:40.668Z,15.29
2023-10-21T18:41:09.178Z,15.31
2023-10-21T18:43:37.954Z,15.32
2023-10-21T18:46:07.345Z,15.31
2023-10-21T18:48:35.778Z,15.30
2023-10-21T18:51:05.340Z,15.26
2023-10-21T18:53:33.648Z,15.22
2023-10-21T18:56:02.044Z,15.18
2023-10-21T18:58:30.537Z,15.13
2023-10-21T19:00:59.265Z,15.10
2023-10-21T19:03:28.468Z,15.03
2023-10-21T19:05:57.041Z,14.98
2023-10-21T19:08:25.556Z,14.93
2023-10-21T19:10:53.687Z,14.92
2023-10-21T19:13:21.766Z,14.93
2023-10-21T19:15:50.015Z,14.95
2023-10-21T19:18:18.376Z,14.98
2023-10-21T19:20:46.518Z,15.00
2023-10-21T19:23:14.939Z,15.01
2023-10-21T19:25:47.747Z,15.03
2023-10-21T19:28:19.693Z,15.03
2023-10-21T19:30:49.478Z,15.03
2023-10-21T19:33:17.765Z,15.05
2023-10-21T19:36:00.219Z,15.05
2023-10-21T19:38:28.707Z,15.01
2023-10-21T19:40:57.006Z,15.05
2023-10-21T19:43:25.323Z,15.06
2023-10-21T19:45:54.141Z,15.04
2023-10-21T19:48:23.687Z,15.04
2023-10-21T19:50:51.858Z,15.02
2023-10-21T19:53:20.445Z,15.04
2023-10-21T19:55:56.277Z,15.06
2023-10-21T19:58:28.678Z,15.05
2023-10-21T20:01:10.902Z,15.07
2023-10-21T20:03:53.572Z,15.02
2023-10-21T20:06:22.307Z,15.10
2023-10-21T20:08:50.648Z,15.14
2023-10-21T20:11:18.955Z,15.16
2023-10-21T20:13:47.343Z,15.18
2023-10-21T20:16:17.047Z,15.20
2023-10-21T20:18:46.397Z,15.20
2023-10-21T20:21:17.810Z,15.20
2023-10-21T20:23:46.394Z,15.20
2023-10-21T20:26:16.190Z,15.21
2023-10-21T20:28:45.205Z,15.21
2023-10-21T20:31:14.946Z,15.20
2023-10-21T20:33:44.674Z,15.18
2023-10-21T20:36:15.983Z,15.16
2023-10-21T20:38:47.507Z,15.15
2023-10-21T20:41:16.394Z,15.15
2023-10-21T20:43:45.046Z,15.11
2023-10-21T20:46:13.537Z,15.04
2023-10-21T20:48:42.160Z,15.00
2023-10-21T20:51:17.303Z,14.96
2023-10-21T20:53:46.939Z,14.92
2023-10-21T20:56:21.655Z,14.89
2023-10-21T20:58:50.851Z,14.83
2023-10-21T21:01:30.780Z,14.83
2023-10-21T21:04:03.578Z,14.79
2023-10-21T21:06:31.869Z,14.84
2023-10-21T21:09:00.246Z,14.86
2023-10-21T21:11:28.580Z,14.85
2023-10-21T21:13:57.882Z,14.89
2023-10-21T21:16:26.700Z,14.91
2023-10-21T21:18:55.132Z,14.92
2023-10-21T21:21:26.651Z,14.91
2023-10-21T21:23:55.062Z,14.90
2023-10-21T21:26:24.003Z,14.89
2023-10-21T21:29:10.925Z,14.70
2023-10-21T21:31:40.418Z,14.57
2023-10-21T21:34:09.078Z,14.65
2023-10-21T21:36:38.543Z,14.65
2023-10-21T21:39:15.273Z,14.65
2023-10-21T21:41:46.149Z,14.63
2023-10-21T21:44:14.624Z,14.65
2023-10-21T21:46:43.373Z,14.65
2023-10-21T21:49:11.900Z,14.66
2023-10-21T21:51:40.499Z,14.66
2023-10-21T21:54:09.084Z,14.66
2023-10-21T21:56:38.051Z,14.65
2023-10-21T21:59:06.448Z,14.67
2023-10-21T22:01:37.170Z,14.69
2023-10-21T22:04:05.813Z,14.69
2023-10-21T22:06:35.245Z,14.69
2023-10-21T22:09:04.775Z,14.71
2023-10-21T22:11:46.817Z,14.72
2023-10-21T22:14:15.828Z,14.68
2023-10-21T22:16:46.969Z,14.71
2023-10-21T22:19:25.826Z,14.69
2023-10-21T22:21:55.200Z,14.68
2023-10-21T22:24:25.359Z,14.67
2023-10-21T22:26:57.634Z,14.65
2023-10-21T22:29:44.781Z,14.63
2023-10-21T22:32:15.956Z,14.61
2023-10-21T22:34:45.306Z,14.61
2023-10-21T22:37:14.906Z,14.62
2023-10-21T22:39:45.714Z,14.61
2023-10-21T22:42:14.141Z,14.60
2023-10-21T22:44:42.928Z,14.61
2023-10-21T22:47:12.310Z,14.62
2023-10-21T22:49:40.481Z,14.62
2023-10-21T22:52:10.046Z,14.66
2023-10-21T22:54:39.013Z,14.66
2023-10-21T22:57:07.459Z,14.65
2023-10-21T22:59:35.778Z,14.67
2023-10-21T23:02:04.219Z,14.70
2023-10-21T23:04:32.811Z,14.74
2023-10-21T23:07:01.451Z,14.76
2023-10-21T23:09:40.148Z,14.78
2023-10-21T23:12:08.415Z,14.74
2023-10-21T23:14:36.993Z,14.76
2023-10-21T23:17:05.633Z,14.77
2023-10-21T23:19:34.110Z,14.77
2023-10-21T23:22:02.380Z,14.76
2023-10-21T23:24:30.956Z,14.76
2023-10-21T23:26:59.470Z,14.73
2023-10-21T23:29:32.192Z,14.71
2023-10-21T23:32:01.742Z,14.71
2023-10-21T23:34:30.193Z,14.72
2023-10-21T23:36:58.448Z,14.71
2023-10-21T23:39:26.864Z,14.71
2023-10-21T23:41:55.641Z,14.69
2023-10-21T23:44:24.262Z,14.69
2023-10-21T23:46:52.662Z,14.69
2023-10-21T23:49:20.873Z,14.68
2023-10-21T23:51:49.442Z,14.66
2023-10-21T23:54:17.616Z,14.65
2023-10-21T23:56:45.811Z,14.62
2023-10-21T23:59:14.261Z,14.54
